TENO2: Tenkiller Lake

Data processed at Fri Jan 05 2018 23:31


All information presented herein is the property of the government of the United States of America and may be revised or deleted at any time without prior notice.
Dissemination of this information without the expressed written consent of the Public Affairs Office, Tulsa District U.S. Army Corps of Engineers is strictly prohibited.
These data are gathered electronically and, as presented, have not undergone any form of quality control. These data are not guaranteed to be valid or correct.
Go to home page.
Go to station list.

Upstream stations:

Downstream station:
Previous Day
Next Day
Current Day
    
SHEF ID:       TENO2     Tenkiller Lake
STATION TYPE:  Reservoir
Normal Pool:  Bottom =   594.50, Top =   632.00

               PRECIP PRECIP(A) ELEVATION   STORAGE   TW-ELEV    INFLOW   RELEASE  AIR-TEMP  WIND-DIRWIND-SPEED REL-HUMID SOLAR-RAD   VOLTAGE  BAT-LOAD
                   in        in        ft     ac-ft        ft       cfs       cfs         F       deg       mph         %      W/m2      volt      volt
              Ccp-Rev   Ccp-Rev   Ccp-Rev   Ccp-Rev   Ccp-Rev  Regi-Rev  Regi-Rev   Ccp-Rev   Ccp-Rev   Ccp-Rev   Ccp-Rev   Ccp-Rev   Ccp-Rev   Ccp-Rev
(US/Central)
01/03 00:00      0.00      0.00    627.32    610017    482.10         0         0     14.72    146.60      0.38     84.79      0.00     13.70     13.12
01/03 01:00      0.00      0.00    627.34    610257    482.10         0         0     13.08    148.70      0.38     86.51      1.00     13.71     13.12
01/03 02:00      0.00      0.00    627.34    610257    482.09         0         0     12.74    147.10      0.38     92.00      1.00     13.71     13.12
01/03 03:00      0.00      0.00    627.34    610257    482.06        20         0     11.98    159.10      0.37     92.80      1.00     13.71     13.12
01/03 04:00      0.00      0.00    627.35    610377    482.04        39         0     11.43    164.70      0.31     93.82      0.00     13.71     13.12
01/03 05:00      0.00      0.00    627.34    610257    482.04        59         0     10.65    164.00      0.34     94.55      0.00     13.70     13.12
01/03 06:00      0.00      0.00    627.33    610137    483.71       159       272     10.11    153.50      0.37     94.57      1.00     13.70     13.12
01/03 07:00      0.00      0.00    627.31    609897    486.78       259      3659     10.65    140.60      0.38     95.36      0.00     13.70     13.12
01/03 08:00      0.00      0.00    627.30    609778    486.96       387      3756     10.99    129.10      0.56     95.05      5.00     13.71     13.12
01/03 09:00      0.00      0.00    627.27    609418    487.00       515      3756     17.58    126.10      0.42     95.10     61.00     13.71     13.12
01/03 10:00      0.00      0.00    627.27    609418    486.60       643      3659     23.61    140.80      1.59     51.34    302.00     13.71     13.12
01/03 11:00      0.00      0.00    627.26    609299    482.52       542         0     27.91    187.60      3.19     51.04    429.00     13.72     13.18
01/03 12:00      0.00      0.00    627.28    609538    482.18       442         0     31.53    168.10      3.10     47.06    508.00     13.71     13.24
01/03 13:00      0.00      0.00    627.25    609179    482.15       322         0     33.73    169.80      3.22     45.85    399.00     13.71     13.18
01/03 14:00      0.00      0.00    627.26    609299    482.12       177         0     33.85    191.50      3.53     43.04    408.00     13.71     13.24
01/03 15:00      0.00      0.00    627.25    609179    482.10        29         0     35.49    192.20      3.50     43.22    405.00     13.71     13.24
01/03 16:00      0.00      0.00    627.26    609299    482.78        29       272     36.27    211.90      2.99     39.80    273.00     13.71     13.24
01/03 17:00      0.00      0.00    627.24    609059    485.51        29      1757     34.72    224.10      2.67     43.28     79.00     13.71     13.30
01/03 18:00      0.00      0.00    627.22    608819    485.89       242      2133     31.53    241.10      0.85     63.97      4.00     13.71     13.30
01/03 19:00      0.00      0.00    627.21    608700    486.99       240      3756     27.68    270.30      0.39     71.97      1.00     13.71     13.24
01/03 20:00      0.00      0.00    627.19    608460    487.07       240      3659     25.93    235.50      0.25     84.67      0.00     13.71     13.12
01/03 21:00      0.00      0.00    627.18    608340    486.56       308      3659     23.61    133.60      0.38     86.01      0.00     13.71     13.24
01/03 22:00      0.00      0.00    627.16    608101    482.52       319       272     22.08    126.40      0.36     90.05      0.00     13.71     13.18
01/03 23:00      0.00      0.00    627.17    608220    482.18        79         0     20.88    144.70      0.37     92.85      1.00     13.71     13.18